Time;durP1;ratioP1;P1;durP2;ratioP2;P2;SDS_P1;SDS_P2;PMS_P1;PMS_P2;Temp;Humidity;BMP_temperature;BMP_pressure;BME280_temperature;BME280_humidity;BME280_pressure;Samples;Min_cycle;Max_cycle;Signal;HPM_P1;HPM_P2
2021/08/10 00:00:09;;;;;;;58.07;2.60;;;14.90;1.00;;;;;;5054039;28;20487;-76
2021/08/10 00:02:36;;;;;;;58.27;2.90;;;14.90;1.00;;;;;;5054358;28;20466;-76
2021/08/10 00:05:05;;;;;;;59.17;3.40;;;14.90;1.00;;;;;;5054804;28;20483;-76
2021/08/10 00:07:33;;;;;;;58.27;2.50;;;14.80;1.00;;;;;;5054837;28;20464;-76
2021/08/10 00:10:00;;;;;;;58.27;2.80;;;14.80;1.00;;;;;;5054225;28;20461;-76
2021/08/10 00:12:28;;;;;;;58.77;3.10;;;14.80;1.00;;;;;;5054299;28;20567;-76
2021/08/10 00:14:55;;;;;;;58.47;2.50;;;14.70;1.00;;;;;;5060690;28;20484;-76
2021/08/10 00:17:22;;;;;;;58.60;2.60;;;14.70;1.00;;;;;;5074619;28;20525;-76
2021/08/10 00:19:50;;;;;;;59.30;2.77;;;14.70;1.00;;;;;;5074397;28;20470;-76
2021/08/10 00:22:17;;;;;;;58.37;2.50;;;14.70;1.00;;;;;;5073891;28;20508;-76
2021/08/10 00:24:46;;;;;;;58.47;2.50;;;14.70;1.00;;;;;;5073949;28;20978;-76
2021/08/10 00:27:15;;;;;;;57.77;2.50;;;14.60;1.00;;;;;;5074483;28;20866;-76
2021/08/10 00:29:42;;;;;;;58.57;2.70;;;14.60;1.00;;;;;;5074107;28;20943;-76
2021/08/10 00:32:09;;;;;;;58.80;3.13;;;14.60;1.00;;;;;;5074338;28;20503;-76
2021/08/10 00:34:37;;;;;;;58.37;2.67;;;14.60;1.00;;;;;;5074428;28;20510;-76
2021/08/10 00:37:05;;;;;;;58.60;2.90;;;14.60;1.00;;;;;;5074127;28;20948;-76
2021/08/10 00:39:32;;;;;;;58.40;2.80;;;14.50;1.00;;;;;;5073780;28;20499;-76
2021/08/10 00:42:01;;;;;;;58.30;2.70;;;14.50;1.00;;;;;;5073932;28;20488;-76
2021/08/10 00:44:29;;;;;;;58.33;2.60;;;14.50;1.00;;;;;;5073829;28;20889;-76
2021/08/10 00:46:56;;;;;;;59.17;2.87;;;14.40;1.00;;;;;;5073715;28;20482;-76
2021/08/10 00:49:23;;;;;;;58.67;2.90;;;14.30;1.00;;;;;;5073818;28;20529;-76
2021/08/10 00:51:52;;;;;;;58.27;2.70;;;14.30;1.00;;;;;;5067338;28;20566;-76
2021/08/10 00:54:20;;;;;;;58.47;2.80;;;14.30;1.00;;;;;;5054173;28;20595;-76
2021/08/10 00:56:48;;;;;;;58.50;2.93;;;14.20;1.00;;;;;;5053311;28;20526;-76
2021/08/10 00:59:16;;;;;;;58.40;2.70;;;14.20;1.00;;;;;;5053702;28;20448;-76
2021/08/10 01:01:43;;;;;;;58.67;2.60;;;14.10;1.00;;;;;;5053864;28;20924;-76
2021/08/10 01:04:11;;;;;;;58.33;2.60;;;14.00;1.00;;;;;;5053432;28;20456;-76
2021/08/10 01:06:51;;;;;;;58.17;2.70;;;14.10;1.00;;;;;;5053731;28;20456;-76
2021/08/10 01:09:23;;;;;;;58.27;2.40;;;14.00;1.00;;;;;;5052779;28;20460;-76
2021/08/10 01:11:58;;;;;;;58.50;3.20;;;14.00;1.00;;;;;;5052669;28;20492;-75
2021/08/10 01:14:32;;;;;;;58.47;3.00;;;13.90;1.00;;;;;;5053409;28;20467;-76
2021/08/10 01:17:05;;;;;;;58.20;2.53;;;13.90;1.00;;;;;;5053329;28;20874;-76
2021/08/10 01:20:02;;;;;;;58.50;3.10;;;13.80;1.00;;;;;;5052719;28;20460;-76
2021/08/10 01:22:32;;;;;;;58.57;2.80;;;13.80;1.00;;;;;;5051831;28;20495;-76
2021/08/10 01:25:07;;;;;;;58.37;2.70;;;13.70;1.00;;;;;;5052412;28;20938;-76
2021/08/10 01:27:50;;;;;;;58.77;2.80;;;13.70;1.00;;;;;;5053041;28;20459;-76
2021/08/10 01:30:22;;;;;;;58.67;2.60;;;13.70;1.00;;;;;;5052756;28;20464;-76
2021/08/10 01:32:52;;;;;;;58.27;2.80;;;13.70;1.00;;;;;;5053238;28;20449;-76
2021/08/10 01:35:21;;;;;;;58.80;3.23;;;13.80;1.00;;;;;;5053465;28;20464;-76
2021/08/10 01:37:57;;;;;;;58.70;2.77;;;13.80;1.00;;;;;;5053275;28;20471;-76
2021/08/10 01:40:27;;;;;;;58.53;2.67;;;13.70;1.00;;;;;;5052667;28;20464;-76
2021/08/10 01:42:57;;;;;;;58.27;2.83;;;13.70;1.00;;;;;;5052595;28;20484;-76
2021/08/10 01:45:25;;;;;;;58.27;2.73;;;13.70;1.00;;;;;;5053344;28;20468;-76
2021/08/10 01:47:55;;;;;;;58.27;2.67;;;13.60;1.00;;;;;;5050422;28;20895;-76
2021/08/10 01:50:24;;;;;;;60.27;4.30;;;13.60;1.00;;;;;;5052707;28;20866;-76
2021/08/10 01:52:52;;;;;;;58.47;2.67;;;13.50;1.00;;;;;;5052999;28;20487;-76
2021/08/10 01:55:21;;;;;;;58.50;2.83;;;13.50;1.00;;;;;;5055401;28;20540;-76
2021/08/10 01:57:50;;;;;;;58.43;2.70;;;13.50;1.00;;;;;;5072148;28;20462;-76
2021/08/10 02:00:17;;;;;;;58.47;2.90;;;13.50;1.00;;;;;;5072378;28;20838;-76
2021/08/10 02:02:45;;;;;;;58.70;3.00;;;13.40;1.00;;;;;;5072317;28;20482;-76
2021/08/10 02:05:15;;;;;;;58.47;2.73;;;13.40;1.00;;;;;;5072768;28;20447;-76
2021/08/10 02:07:43;;;;;;;58.50;2.70;;;13.40;1.00;;;;;;5072424;28;20463;-76
2021/08/10 02:10:11;;;;;;;58.33;2.87;;;13.40;1.00;;;;;;5072125;28;20483;-76
2021/08/10 02:12:39;;;;;;;58.70;2.77;;;13.50;1.00;;;;;;5072508;28;20456;-76
2021/08/10 02:15:07;;;;;;;58.60;2.80;;;13.50;1.00;;;;;;5072456;28;20513;-76
2021/08/10 02:17:34;;;;;;;58.37;2.70;;;13.50;1.00;;;;;;5072203;28;20467;-76
2021/08/10 02:20:02;;;;;;;58.27;2.80;;;13.50;1.00;;;;;;5072041;28;20937;-76
2021/08/10 02:22:32;;;;;;;58.57;2.90;;;13.50;1.00;;;;;;5071762;28;20846;-76
2021/08/10 02:25:02;;;;;;;59.70;3.27;;;13.50;1.00;;;;;;5072202;28;20463;-76
2021/08/10 02:27:35;;;;;;;58.40;2.57;;;13.60;1.00;;;;;;5070013;28;20467;-76
2021/08/10 02:30:08;;;;;;;58.77;3.20;;;13.60;1.00;;;;;;5072086;28;20811;-76
2021/08/10 02:32:37;;;;;;;58.17;2.80;;;13.60;1.00;;;;;;5072576;28;21098;-76
2021/08/10 02:35:06;;;;;;;58.27;2.80;;;13.50;1.00;;;;;;5071846;28;20527;-76
2021/08/10 02:37:37;;;;;;;58.60;2.80;;;13.50;1.00;;;;;;5072316;28;20450;-76
2021/08/10 02:40:07;;;;;;;58.37;2.73;;;13.50;1.00;;;;;;5071865;28;20537;-76
2021/08/10 02:42:36;;;;;;;58.57;2.70;;;13.50;1.00;;;;;;5072186;28;20573;-76
2021/08/10 02:45:04;;;;;;;59.10;2.90;;;13.50;1.00;;;;;;5072154;28;20450;-76
2021/08/10 02:47:32;;;;;;;58.50;3.20;;;13.50;1.00;;;;;;5071841;28;20550;-76
2021/08/10 02:50:01;;;;;;;58.23;2.60;;;13.50;1.00;;;;;;5071737;28;20967;-76
2021/08/10 02:52:28;;;;;;;59.00;3.77;;;13.50;1.00;;;;;;5072043;28;20470;-76
2021/08/10 02:54:56;;;;;;;58.20;2.50;;;13.50;1.00;;;;;;5072213;28;20534;-76
2021/08/10 02:57:27;;;;;;;58.17;2.80;;;13.50;1.00;;;;;;5071631;28;20470;-76
2021/08/10 02:59:58;;;;;;;58.23;2.40;;;13.50;1.00;;;;;;5069264;28;20489;-76
2021/08/10 03:02:31;;;;;;;58.30;2.50;;;13.50;1.00;;;;;;5071125;28;20486;-76
2021/08/10 03:05:02;;;;;;;58.47;2.70;;;13.50;1.00;;;;;;5071537;28;20472;-76
2021/08/10 03:07:32;;;;;;;58.27;2.73;;;13.50;1.00;;;;;;5071696;28;20462;-76
2021/08/10 03:10:03;;;;;;;58.50;2.70;;;13.50;1.00;;;;;;5071298;28;20520;-76
2021/08/10 03:12:33;;;;;;;58.37;2.67;;;13.50;1.00;;;;;;5071335;28;20471;-76
2021/08/10 03:15:01;;;;;;;58.13;2.60;;;13.40;1.00;;;;;;5071438;28;20460;-76
2021/08/10 03:17:32;;;;;;;58.47;2.60;;;13.40;1.00;;;;;;5071479;28;20458;-76
2021/08/10 03:20:01;;;;;;;58.23;2.60;;;13.40;1.00;;;;;;5071431;28;20830;-76
2021/08/10 03:22:30;;;;;;;58.40;2.80;;;13.40;1.00;;;;;;5071168;28;20491;-76
2021/08/10 03:25:00;;;;;;;58.33;2.60;;;13.30;1.00;;;;;;5071655;28;20538;-76
2021/08/10 03:27:28;;;;;;;58.70;2.90;;;13.30;1.00;;;;;;5071578;28;20466;-75
2021/08/10 03:29:55;;;;;;;58.23;2.60;;;13.30;1.00;;;;;;5069835;28;20478;-76
2021/08/10 03:32:23;;;;;;;58.17;2.60;;;13.30;1.00;;;;;;5050344;28;20522;-76
2021/08/10 03:34:51;;;;;;;58.17;2.60;;;13.30;1.00;;;;;;5054507;28;20459;-76
2021/08/10 03:37:18;;;;;;;58.57;2.90;;;13.30;1.00;;;;;;5055400;28;20543;-75
2021/08/10 03:39:46;;;;;;;59.30;2.80;;;13.30;1.00;;;;;;5055008;28;20475;-76
2021/08/10 03:42:15;;;;;;;58.27;2.70;;;13.30;1.00;;;;;;5054924;28;20581;-75
2021/08/10 03:44:43;;;;;;;59.57;2.80;;;13.30;1.00;;;;;;5055028;28;21002;-76
2021/08/10 03:47:11;;;;;;;58.37;2.70;;;13.30;1.00;;;;;;5054961;28;20464;-76
2021/08/10 03:49:39;;;;;;;58.17;2.63;;;13.30;1.00;;;;;;5054730;28;20551;-76
2021/08/10 03:52:08;;;;;;;58.17;2.70;;;13.30;1.00;;;;;;5054678;28;20475;-76
2021/08/10 03:54:36;;;;;;;58.13;2.60;;;13.30;1.00;;;;;;5055098;28;20518;-76
2021/08/10 03:57:04;;;;;;;57.97;2.43;;;13.30;1.00;;;;;;5054983;28;20460;-76
2021/08/10 03:59:35;;;;;;;57.97;2.60;;;13.30;1.00;;;;;;5054481;28;20964;-76
2021/08/10 04:02:03;;;;;;;58.23;2.90;;;13.30;1.00;;;;;;5059275;28;20578;-76
2021/08/10 04:04:31;;;;;;;58.93;2.83;;;13.30;1.00;;;;;;5074373;28;20455;-76
2021/08/10 04:06:59;;;;;;;58.40;2.40;;;13.20;1.00;;;;;;5074521;28;20455;-76
2021/08/10 04:09:27;;;;;;;58.20;2.60;;;13.20;1.00;;;;;;5074347;28;20466;-76
2021/08/10 04:11:54;;;;;;;58.13;2.50;;;13.20;1.00;;;;;;5074255;28;20502;-76
2021/08/10 04:14:22;;;;;;;58.20;2.70;;;13.10;1.00;;;;;;5074501;28;20459;-76
2021/08/10 04:16:54;;;;;;;58.23;2.53;;;13.10;1.00;;;;;;5074547;28;20542;-76
2021/08/10 04:19:24;;;;;;;58.17;2.50;;;13.20;1.00;;;;;;5074240;28;20454;-76
2021/08/10 04:21:51;;;;;;;58.30;2.70;;;13.30;1.00;;;;;;5074057;28;20487;-76
2021/08/10 04:24:18;;;;;;;58.17;2.43;;;13.30;1.00;;;;;;5074647;28;20462;-76
2021/08/10 04:26:46;;;;;;;58.10;2.57;;;13.30;1.00;;;;;;5074350;28;20554;-76
2021/08/10 04:29:14;;;;;;;58.37;2.50;;;13.30;1.00;;;;;;5074162;28;20470;-76
2021/08/10 04:31:41;;;;;;;58.07;2.57;;;13.30;1.00;;;;;;5074017;28;20489;-76
2021/08/10 04:34:10;;;;;;;58.37;3.23;;;13.40;1.00;;;;;;5071978;28;20459;-76
2021/08/10 04:36:37;;;;;;;58.17;2.53;;;13.50;1.00;;;;;;5074535;28;20852;-76
2021/08/10 04:39:05;;;;;;;58.50;2.70;;;13.60;1.00;;;;;;5074055;28;20546;-76
2021/08/10 04:41:33;;;;;;;58.27;2.50;;;13.60;1.00;;;;;;5074058;28;21037;-76
2021/08/10 04:44:01;;;;;;;58.30;2.53;;;13.70;1.00;;;;;;5073746;28;20963;-76
2021/08/10 04:46:30;;;;;;;58.20;2.80;;;13.80;1.00;;;;;;5072742;28;20451;-76
2021/08/10 04:48:57;;;;;;;58.03;2.60;;;13.90;1.00;;;;;;5074074;28;20534;-76
2021/08/10 04:51:26;;;;;;;57.97;2.50;;;13.90;1.00;;;;;;5073893;28;20482;-76
2021/08/10 04:53:53;;;;;;;58.33;2.83;;;14.00;1.00;;;;;;5074185;28;20455;-76
2021/08/10 04:56:20;;;;;;;58.30;2.33;;;14.00;1.00;;;;;;5073983;28;20531;-76
2021/08/10 04:58:47;;;;;;;58.40;3.10;;;14.10;1.00;;;;;;5073656;28;20538;-75
2021/08/10 05:01:15;;;;;;;58.10;2.63;;;14.10;1.00;;;;;;5073798;28;20627;-76
2021/08/10 05:03:44;;;;;;;58.17;2.50;;;14.10;1.00;;;;;;5074024;28;20494;-76
2021/08/10 05:06:12;;;;;;;58.27;2.97;;;14.20;1.00;;;;;;5053558;28;20459;-76
2021/08/10 05:08:41;;;;;;;58.30;2.83;;;14.20;1.00;;;;;;5053903;28;20460;-76
2021/08/10 05:11:11;;;;;;;57.97;2.40;;;14.20;1.00;;;;;;5053286;28;20554;-76
2021/08/10 05:13:39;;;;;;;58.00;2.43;;;14.20;1.00;;;;;;5053332;28;20460;-76
2021/08/10 05:16:07;;;;;;;57.97;2.47;;;14.20;1.00;;;;;;5053320;28;20986;-76
2021/08/10 05:18:35;;;;;;;57.87;2.50;;;14.20;1.00;;;;;;5053749;28;20455;-76
2021/08/10 05:21:02;;;;;;;59.27;3.13;;;14.20;1.00;;;;;;5053437;28;20796;-76
2021/08/10 05:23:32;;;;;;;58.07;2.47;;;14.20;1.00;;;;;;5053041;28;20489;-75
2021/08/10 05:26:01;;;;;;;58.30;2.80;;;14.20;1.00;;;;;;5053172;28;20483;-75
2021/08/10 05:28:29;;;;;;;58.33;2.60;;;14.20;1.00;;;;;;5053195;28;20461;-75
2021/08/10 05:30:56;;;;;;;57.97;2.40;;;14.20;1.00;;;;;;5052684;28;20572;-75
2021/08/10 05:33:23;;;;;;;57.83;2.47;;;14.30;1.00;;;;;;5053152;28;20448;-75
2021/08/10 05:35:51;;;;;;;58.27;2.60;;;14.40;1.00;;;;;;5055089;28;20479;-75
2021/08/10 05:38:18;;;;;;;58.07;2.70;;;14.50;1.00;;;;;;5072854;28;20982;-75
2021/08/10 05:40:45;;;;;;;58.30;2.90;;;14.60;1.00;;;;;;5072443;28;20478;-75
2021/08/10 05:43:14;;;;;;;57.93;2.43;;;14.60;1.00;;;;;;5072710;28;20491;-75
2021/08/10 05:45:41;;;;;;;58.20;2.50;;;14.70;1.00;;;;;;5072746;28;20481;-75
2021/08/10 05:48:10;;;;;;;58.17;2.90;;;14.80;1.00;;;;;;5072946;28;20488;-75
2021/08/10 05:50:38;;;;;;;58.00;2.40;;;14.80;1.00;;;;;;5072515;28;20541;-75
2021/08/10 05:53:05;;;;;;;58.17;2.60;;;14.90;1.00;;;;;;5072655;28;20448;-75
2021/08/10 05:55:32;;;;;;;57.77;2.50;;;15.00;1.00;;;;;;5072651;28;20543;-75
2021/08/10 05:57:59;;;;;;;58.27;2.70;;;15.10;1.00;;;;;;5072433;28;20460;-75
2021/08/10 06:00:28;;;;;;;58.07;2.80;;;15.20;1.00;;;;;;5072590;28;20448;-75
2021/08/10 06:02:55;;;;;;;58.03;2.60;;;15.30;1.00;;;;;;5072747;28;20562;-75
2021/08/10 06:05:22;;;;;;;58.30;2.70;;;15.40;1.00;;;;;;5072553;28;20453;-75
2021/08/10 06:07:49;;;;;;;58.07;2.57;;;15.50;1.00;;;;;;5060967;28;20461;-75
2021/08/10 06:10:17;;;;;;;58.30;2.90;;;15.60;1.00;;;;;;5052039;28;20468;-75
2021/08/10 06:12:44;;;;;;;58.27;2.80;;;15.60;1.00;;;;;;5052825;28;20459;-75
2021/08/10 06:15:12;;;;;;;58.20;2.80;;;15.60;1.00;;;;;;5052559;28;20485;-75
2021/08/10 06:17:40;;;;;;;58.07;2.43;;;15.60;1.00;;;;;;5052135;28;20574;-75
2021/08/10 06:20:09;;;;;;;58.17;2.50;;;15.60;1.00;;;;;;5051545;28;20483;-75
2021/08/10 06:22:36;;;;;;;58.30;2.40;;;15.70;1.00;;;;;;5052936;28;20482;-75
2021/08/10 06:25:04;;;;;;;57.97;2.40;;;15.70;1.00;;;;;;5052494;28;20894;-75
2021/08/10 06:27:31;;;;;;;58.27;2.83;;;15.90;1.00;;;;;;5052101;28;20494;-75
2021/08/10 06:29:58;;;;;;;58.07;2.60;;;16.00;1.00;;;;;;5051862;28;20460;-75
2021/08/10 06:32:25;;;;;;;58.00;2.50;;;16.10;1.00;;;;;;5052238;28;20899;-75
2021/08/10 06:34:53;;;;;;;58.80;3.10;;;16.20;1.00;;;;;;5051484;28;20524;-75
2021/08/10 06:37:20;;;;;;;57.90;2.60;;;16.30;1.00;;;;;;5051633;28;20466;-75
2021/08/10 06:39:46;;;;;;;58.00;2.57;;;16.40;1.00;;;;;;5050087;28;20458;-75
2021/08/10 06:42:14;;;;;;;58.10;2.40;;;16.40;1.00;;;;;;5052115;28;20477;-75
2021/08/10 06:44:41;;;;;;;58.20;3.07;;;16.50;1.00;;;;;;5051731;28;20473;-75
2021/08/10 06:47:09;;;;;;;58.60;3.00;;;16.60;1.00;;;;;;5051572;28;20984;-75
2021/08/10 06:49:36;;;;;;;58.47;2.60;;;16.70;1.00;;;;;;5051560;28;20465;-75
2021/08/10 06:52:06;;;;;;;58.07;2.70;;;16.70;1.00;;;;;;5051989;28;20958;-75
2021/08/10 06:54:33;;;;;;;57.93;2.50;;;16.70;1.00;;;;;;5052054;28;20541;-75
2021/08/10 06:57:04;;;;;;;58.23;2.87;;;16.80;1.00;;;;;;5051813;28;20928;-75
2021/08/10 06:59:31;;;;;;;58.03;2.60;;;16.80;1.00;;;;;;5051365;28;20489;-75
2021/08/10 07:01:59;;;;;;;58.03;2.43;;;16.90;1.00;;;;;;5051549;28;20561;-75
2021/08/10 07:04:26;;;;;;;58.07;2.37;;;17.00;1.00;;;;;;5051075;28;20498;-75
2021/08/10 07:06:53;;;;;;;57.47;2.30;;;17.10;1.00;;;;;;5051577;28;20520;-75
2021/08/10 07:09:23;;;;;;;57.83;2.20;;;17.10;1.00;;;;;;5050102;28;20463;-75
2021/08/10 07:11:49;;;;;;;58.27;2.40;;;17.30;1.00;;;;;;5071561;28;20504;-75
2021/08/10 07:14:17;;;;;;;58.30;2.63;;;17.60;1.00;;;;;;5065159;28;20482;-75
2021/08/10 07:16:45;;;;;;;57.83;2.20;;;17.70;1.00;;;;;;5052997;28;20463;-75
2021/08/10 07:19:13;;;;;;;58.03;2.30;;;17.90;1.00;;;;;;5051597;28;20451;-75
2021/08/10 07:21:40;;;;;;;57.97;2.43;;;18.00;1.00;;;;;;5051671;28;20538;-75
2021/08/10 07:24:07;;;;;;;58.00;2.50;;;18.00;1.00;;;;;;5051476;28;20585;-75
2021/08/10 07:26:36;;;;;;;58.17;2.33;;;18.10;1.00;;;;;;5051557;28;20483;-76
2021/08/10 07:29:04;;;;;;;57.87;2.40;;;18.10;1.00;;;;;;5051350;28;20478;-76
2021/08/10 07:31:31;;;;;;;58.80;3.03;;;18.20;1.00;;;;;;5051014;28;21004;-76
2021/08/10 07:33:58;;;;;;;58.40;3.20;;;18.30;1.00;;;;;;5051781;28;20487;-76
2021/08/10 07:36:25;;;;;;;58.20;2.70;;;18.50;1.00;;;;;;5051370;28;20836;-76
2021/08/10 07:38:52;;;;;;;58.60;2.70;;;18.60;1.00;;;;;;5051282;28;20483;-75
2021/08/10 07:41:19;;;;;;;57.77;2.40;;;18.70;1.00;;;;;;5056367;28;20502;-75
2021/08/10 07:43:47;;;;;;;57.83;2.60;;;18.80;1.00;;;;;;5071374;28;20567;-75
2021/08/10 07:46:16;;;;;;;57.90;2.40;;;18.80;1.00;;;;;;5071640;28;20479;-75
2021/08/10 07:48:44;;;;;;;58.00;2.33;;;18.90;1.00;;;;;;5071320;28;20463;-76
2021/08/10 07:51:11;;;;;;;58.17;2.93;;;19.10;1.00;;;;;;5070750;28;20482;-75
2021/08/10 07:53:38;;;;;;;58.30;3.13;;;19.10;1.00;;;;;;5071151;28;20443;-76
2021/08/10 07:56:05;;;;;;;58.03;2.40;;;19.20;1.00;;;;;;5071336;28;20466;-76
2021/08/10 07:58:33;;;;;;;58.17;2.70;;;19.30;1.00;;;;;;5071196;28;20491;-76
2021/08/10 08:01:02;;;;;;;58.07;2.53;;;19.40;1.00;;;;;;5071103;28;20888;-75
2021/08/10 08:03:28;;;;;;;58.47;2.77;;;19.50;1.00;;;;;;5070994;28;20490;-76
2021/08/10 08:05:55;;;;;;;58.40;3.00;;;19.60;1.00;;;;;;5071124;28;20551;-76
2021/08/10 08:08:25;;;;;;;57.97;2.37;;;19.80;1.00;;;;;;5070894;28;20535;-76
2021/08/10 08:10:52;;;;;;;57.77;2.27;;;19.80;1.00;;;;;;5071019;28;20475;-76
2021/08/10 08:13:20;;;;;;;57.90;2.30;;;19.90;1.00;;;;;;5058448;28;20495;-76
2021/08/10 08:15:47;;;;;;;57.77;2.40;;;20.10;1.00;;;;;;5051487;28;20575;-76
2021/08/10 08:18:16;;;;;;;58.20;2.30;;;20.40;1.00;;;;;;5051428;28;20540;-76
2021/08/10 08:20:44;;;;;;;57.93;2.50;;;20.50;1.00;;;;;;5052944;28;21073;-76
2021/08/10 08:23:11;;;;;;;57.67;2.20;;;20.70;1.00;;;;;;5054511;28;20496;-76
2021/08/10 08:25:38;;;;;;;57.63;2.20;;;21.00;1.00;;;;;;5054732;28;20475;-76
2021/08/10 08:28:08;;;;;;;57.77;2.30;;;21.20;1.00;;;;;;5054579;28;20547;-76
2021/08/10 08:30:38;;;;;;;57.20;2.50;;;21.40;1.00;;;;;;5054456;28;20485;-76
2021/08/10 08:33:05;;;;;;;58.03;2.43;;;21.70;1.00;;;;;;5054383;28;20987;-77
2021/08/10 08:35:34;;;;;;;58.03;2.47;;;21.90;1.00;;;;;;5054313;28;20457;-76
2021/08/10 08:38:01;;;;;;;58.07;2.20;;;22.00;1.00;;;;;;5054304;28;20484;-76
2021/08/10 08:40:28;;;;;;;58.10;2.40;;;22.20;1.00;;;;;;5054207;28;20495;-76
2021/08/10 08:42:55;;;;;;;57.80;2.43;;;22.40;1.00;;;;;;5054022;28;20480;-76
2021/08/10 08:45:22;;;;;;;57.50;2.27;;;22.50;1.00;;;;;;5066874;28;20990;-75
2021/08/10 08:47:51;;;;;;;57.77;2.00;;;22.30;1.00;;;;;;5074086;28;20534;-76
2021/08/10 08:50:19;;;;;;;57.40;2.17;;;22.30;1.00;;;;;;5073593;28;20541;-76
2021/08/10 08:52:51;;;;;;;58.50;2.40;;;22.50;1.00;;;;;;5074195;28;20482;-75
2021/08/10 08:55:18;;;;;;;57.83;2.70;;;22.70;1.00;;;;;;5073904;28;20490;-76
2021/08/10 08:57:46;;;;;;;57.57;2.40;;;22.80;1.00;;;;;;5073986;28;20752;-75
2021/08/10 09:00:14;;;;;;;57.20;2.30;;;23.00;1.00;;;;;;5073627;28;20966;-75
2021/08/10 09:02:44;;;;;;;57.80;2.10;;;23.00;1.00;;;;;;5073662;28;20495;-76
2021/08/10 09:05:12;;;;;;;58.10;2.13;;;23.00;1.00;;;;;;5073954;28;20519;-75
2021/08/10 09:07:39;;;;;;;57.73;2.10;;;23.10;1.00;;;;;;5073966;28;20538;-76
2021/08/10 09:10:10;;;;;;;58.00;2.20;;;23.30;1.00;;;;;;5073361;28;20480;-75
2021/08/10 09:12:45;;;;;;;59.07;2.40;;;23.50;1.00;;;;;;5073287;28;20451;-76
2021/08/10 09:15:29;;;;;;;57.97;2.27;;;23.60;1.00;;;;;;5073379;28;21011;-75
2021/08/10 09:17:59;;;;;;;57.57;2.43;;;23.80;1.00;;;;;;5073682;28;20962;-76
2021/08/10 09:20:26;;;;;;;57.77;2.10;;;23.90;1.00;;;;;;5073206;28;20538;-75
2021/08/10 09:22:56;;;;;;;57.80;2.10;;;24.00;1.00;;;;;;5073332;28;20534;-76
2021/08/10 09:25:25;;;;;;;59.33;2.60;;;24.00;1.00;;;;;;5073149;28;21028;-75
2021/08/10 09:28:04;;;;;;;57.77;2.40;;;24.10;1.00;;;;;;5073554;28;20982;-75
2021/08/10 09:30:33;;;;;;;58.10;2.40;;;24.20;1.00;;;;;;5073129;28;21051;-76
2021/08/10 09:33:01;;;;;;;58.17;3.07;;;24.20;1.00;;;;;;5072620;28;20464;-76
2021/08/10 09:35:32;;;;;;;58.10;2.43;;;24.10;1.00;;;;;;5073281;28;20541;-75
2021/08/10 09:38:08;;;;;;;57.77;2.17;;;24.10;1.00;;;;;;5073080;28;20451;-75
2021/08/10 09:40:37;;;;;;;57.47;2.10;;;24.30;1.00;;;;;;5073118;28;20465;-75
2021/08/10 09:43:26;;;;;;;57.30;2.20;;;24.50;1.00;;;;;;5073336;28;20490;-76
2021/08/10 09:46:14;;;;;;;57.87;2.50;;;24.60;1.00;;;;;;5072752;28;20451;-75
2021/08/10 09:48:53;;;;;;;57.57;2.30;;;24.80;1.00;;;;;;5058378;28;20798;-75
2021/08/10 09:51:22;;;;;;;57.67;2.10;;;24.90;1.00;;;;;;5052493;28;20522;-76
2021/08/10 09:53:56;;;;;;;57.70;2.20;;;24.90;1.00;;;;;;5052722;28;20456;-76
2021/08/10 09:56:37;;;;;;;58.00;2.30;;;25.00;1.00;;;;;;5052856;28;21096;-75
2021/08/10 09:59:04;;;;;;;58.00;2.53;;;25.00;1.00;;;;;;5052807;28;20455;-75
2021/08/10 10:01:34;;;;;;;57.87;2.30;;;25.20;1.00;;;;;;5052596;28;20503;-76
2021/08/10 10:04:15;;;;;;;58.00;2.50;;;25.30;1.00;;;;;;5052735;28;20491;-75
2021/08/10 10:06:43;;;;;;;57.53;2.00;;;25.60;1.00;;;;;;5052496;28;20537;-76
2021/08/10 10:09:10;;;;;;;57.70;2.10;;;25.80;1.00;;;;;;5052198;28;20841;-76
2021/08/10 10:11:39;;;;;;;57.97;1.90;;;26.00;1.00;;;;;;5052651;28;20474;-76
2021/08/10 10:14:08;;;;;;;58.10;2.10;;;26.10;1.00;;;;;;5052622;28;20840;-76
2021/08/10 10:16:35;;;;;;;57.57;1.80;;;26.10;1.00;;;;;;5052508;28;20542;-76
2021/08/10 10:19:10;;;;;;;57.47;2.00;;;26.20;1.00;;;;;;5053203;28;20545;-76
2021/08/10 10:21:38;;;;;;;57.57;2.10;;;26.30;1.00;;;;;;5072036;28;20495;-75
2021/08/10 10:24:05;;;;;;;57.97;2.10;;;26.30;1.00;;;;;;5072380;28;20583;-76
2021/08/10 10:26:33;;;;;;;57.70;2.10;;;26.50;1.00;;;;;;5072328;28;20548;-76
2021/08/10 10:29:03;;;;;;;57.70;1.90;;;26.80;1.00;;;;;;5072247;28;20472;-76
2021/08/10 10:31:32;;;;;;;58.20;2.50;;;26.80;1.00;;;;;;5072124;28;20473;-76
2021/08/10 10:33:59;;;;;;;57.37;2.00;;;26.90;1.00;;;;;;5072116;28;21018;-76
2021/08/10 10:36:26;;;;;;;58.10;2.03;;;26.90;1.00;;;;;;5071838;28;20877;-76
2021/08/10 10:38:55;;;;;;;57.67;2.10;;;27.00;1.00;;;;;;5072263;28;20483;-76
2021/08/10 10:41:24;;;;;;;57.57;2.47;;;27.20;1.00;;;;;;5071802;28;20558;-76
2021/08/10 10:43:53;;;;;;;57.53;1.93;;;27.40;1.00;;;;;;5071091;28;21014;-76
2021/08/10 10:46:31;;;;;;;57.77;2.20;;;27.60;1.00;;;;;;5071892;28;20486;-76
2021/08/10 10:48:58;;;;;;;57.77;2.33;;;27.80;1.00;;;;;;5071801;28;20534;-76
2021/08/10 10:51:28;;;;;;;57.50;1.97;;;28.00;1.00;;;;;;5069932;28;20474;-74
2021/08/10 10:54:28;;;;;;;57.50;2.10;;;28.40;1.00;;;;;;5071976;28;20482;-74
2021/08/10 10:56:57;;;;;;;57.57;2.50;;;28.90;1.00;;;;;;5071665;28;21009;-75
2021/08/10 10:59:35;;;;;;;57.47;1.90;;;29.30;1.00;;;;;;5071484;28;20542;-74
2021/08/10 11:02:23;;;;;;;58.00;2.63;;;29.40;1.00;;;;;;5071856;28;20544;-74
2021/08/10 11:05:26;;;;;;;57.37;1.80;;;29.40;1.00;;;;;;5071755;28;20480;-75
2021/08/10 11:07:54;;;;;;;57.47;1.80;;;29.50;1.00;;;;;;5071549;28;20444;-74
2021/08/10 11:10:52;;;;;;;57.03;1.80;;;29.50;1.00;;;;;;5071435;28;20483;-74
2021/08/10 11:13:37;;;;;;;57.20;1.90;;;29.40;1.00;;;;;;5071714;28;20484;-75
2021/08/10 11:16:10;;;;;;;57.40;1.80;;;29.30;1.00;;;;;;5071260;28;20527;-74
2021/08/10 11:18:39;;;;;;;58.10;2.20;;;29.30;1.00;;;;;;5071958;28;20441;-74
2021/08/10 11:21:25;;;;;;;57.80;2.23;;;29.60;1.00;;;;;;5071141;28;20511;-74
2021/08/10 11:23:53;;;;;;;57.57;2.00;;;30.40;1.00;;;;;;5050878;28;20447;-75
2021/08/10 11:26:38;;;;;;;57.37;2.20;;;31.00;1.00;;;;;;5062452;28;20505;-73
2021/08/10 11:29:05;;;;;;;57.40;2.00;;;31.70;1.00;;;;;;5071575;28;20446;-74
2021/08/10 11:31:36;;;;;;;57.37;2.20;;;32.00;1.00;;;;;;5071517;28;20479;-74
2021/08/10 11:34:06;;;;;;;58.17;2.30;;;31.90;1.00;;;;;;5071571;28;20443;-74
2021/08/10 11:36:33;;;;;;;57.20;1.90;;;32.10;1.00;;;;;;5071341;28;20451;-75
2021/08/10 11:39:10;;;;;;;58.20;2.20;;;32.00;1.00;;;;;;5071240;28;20483;-74
2021/08/10 11:41:39;;;;;;;57.70;2.40;;;31.80;1.00;;;;;;5061843;28;20838;-76
2021/08/10 11:44:16;;;;;;;57.37;2.00;;;31.50;1.00;;;;;;5051555;28;20519;-75
2021/08/10 11:46:44;;;;;;;57.80;2.13;;;31.50;1.00;;;;;;5051794;28;20446;-74
2021/08/10 11:49:17;;;;;;;58.27;2.23;;;31.30;1.00;;;;;;5050375;28;20451;-74
2021/08/10 11:51:45;;;;;;;57.50;2.17;;;30.80;1.00;;;;;;5051352;28;20499;-74
2021/08/10 11:54:16;;;;;;;57.27;1.90;;;30.50;1.00;;;;;;5056644;28;20446;-75
2021/08/10 11:56:44;;;;;;;57.50;2.13;;;30.40;1.00;;;;;;5075214;28;20444;-74
2021/08/10 11:59:16;;;;;;;57.27;2.00;;;30.30;1.00;;;;;;5074697;28;20827;-75
2021/08/10 12:01:43;;;;;;;57.70;2.30;;;30.00;1.00;;;;;;5074737;28;20567;-74
2021/08/10 12:04:15;;;;;;;57.57;2.27;;;29.70;1.00;;;;;;5075026;28;20570;-75
2021/08/10 12:06:43;;;;;;;57.40;2.20;;;29.60;1.00;;;;;;5074935;28;20463;-74
2021/08/10 12:09:12;;;;;;;57.50;2.10;;;29.60;1.00;;;;;;5074723;28;20479;-74
2021/08/10 12:11:39;;;;;;;57.80;2.30;;;29.80;1.00;;;;;;5074961;28;20532;-74
2021/08/10 12:14:11;;;;;;;57.53;2.50;;;30.00;1.00;;;;;;5074817;28;20487;-73
2021/08/10 12:16:37;;;;;;;57.33;2.17;;;30.20;1.00;;;;;;5074776;28;20556;-72
2021/08/10 12:19:04;;;;;;;57.13;2.00;;;30.70;1.00;;;;;;5074704;28;20450;-72
2021/08/10 12:21:44;;;;;;;57.27;2.00;;;31.40;1.00;;;;;;5074454;28;20482;-72
2021/08/10 12:24:28;;;;;;;57.60;2.10;;;32.10;1.00;;;;;;5074589;28;20447;-72
2021/08/10 12:26:55;;;;;;;57.13;2.10;;;32.80;1.00;;;;;;5072268;28;20586;-72
2021/08/10 12:29:32;;;;;;;57.17;1.90;;;33.10;1.00;;;;;;5074291;28;20463;-73
2021/08/10 12:32:00;;;;;;;57.27;2.00;;;33.50;1.00;;;;;;5074285;28;20784;-72
2021/08/10 12:34:31;;;;;;;57.07;2.00;;;33.80;1.00;;;;;;5074396;28;20454;-71
2021/08/10 12:37:00;;;;;;;57.17;1.90;;;34.00;1.00;;;;;;5074260;28;20443;-72
2021/08/10 12:39:27;;;;;;;57.53;2.10;;;33.90;1.00;;;;;;5074082;28;20464;-73
2021/08/10 12:41:58;;;;;;;56.93;1.80;;;33.80;1.00;;;;;;5074253;28;20551;-72
2021/08/10 12:44:26;;;;;;;57.50;2.30;;;33.70;1.00;;;;;;5074222;28;20558;-72
2021/08/10 12:46:57;;;;;;;57.23;2.03;;;33.50;1.00;;;;;;5074142;28;20458;-72
2021/08/10 12:49:35;;;;;;;57.07;1.80;;;33.30;1.00;;;;;;5073822;28;20561;-72
2021/08/10 12:52:05;;;;;;;56.93;1.70;;;33.10;1.00;;;;;;5074190;28;20467;-71
2021/08/10 12:54:34;;;;;;;57.13;1.80;;;33.50;1.00;;;;;;5074117;28;20455;-72
2021/08/10 12:57:02;;;;;;;56.80;1.90;;;33.80;1.00;;;;;;5073870;28;20448;-71
2021/08/10 12:59:43;;;;;;;57.23;2.07;;;33.70;1.00;;;;;;5054689;28;20448;-72